Athens, West Virginia
Current Conditions -  °F | °C
As of 6:52 PM on Wednesday 28 Jan 2015 (Local Time) from KBLF Reporting Station
Clear Clear  
Wind Chill: 29°   Ceiling: Unl
Heat Index: 29°   Visibility: 10mi
Dew Point: 14°   Wind: 0mph
Humidity: 54%   Direction: NA
Pressure: 30.22"   Gusts: NA
Location:  37.42°N, 81.02°W
Report Text: KBLF 282352Z AUTO 00000KT 10SM CLR M02/M10 A3022 RMK AO2 SLP263 T10171100 10022 21022 53009
Loading
Personal Weather Stations






























Interactive Weather Map New forecast layout! Learn more

10-Day Weather Forecast

Advertisements
Track Severe Weather on mobile